sensor_id;sensor_type;location;lat;lon;timestamp;P1;durP1;ratioP1;P2;durP2;ratioP2
14554;SDS011;7364;50.870;4.722;2023-02-28T00:01:18;8.27;;;5.47;;
14554;SDS011;7364;50.870;4.722;2023-02-28T00:03:46;7.97;;;5.67;;
14554;SDS011;7364;50.870;4.722;2023-02-28T00:06:14;7.63;;;5.23;;
14554;SDS011;7364;50.870;4.722;2023-02-28T00:08:41;7.83;;;5.97;;
14554;SDS011;7364;50.870;4.722;2023-02-28T00:11:09;9.77;;;6.00;;
14554;SDS011;7364;50.870;4.722;2023-02-28T00:13:38;6.33;;;5.07;;
14554;SDS011;7364;50.870;4.722;2023-02-28T00:16:08;11.57;;;5.87;;
14554;SDS011;7364;50.870;4.722;2023-02-28T00:18:36;9.07;;;5.87;;
14554;SDS011;7364;50.870;4.722;2023-02-28T00:21:05;6.87;;;4.70;;
14554;SDS011;7364;50.870;4.722;2023-02-28T00:23:33;5.73;;;4.70;;
14554;SDS011;7364;50.870;4.722;2023-02-28T00:26:01;7.67;;;5.33;;
14554;SDS011;7364;50.870;4.722;2023-02-28T00:28:28;8.67;;;5.47;;
14554;SDS011;7364;50.870;4.722;2023-02-28T00:30:56;10.43;;;5.83;;
14554;SDS011;7364;50.870;4.722;2023-02-28T00:33:25;9.07;;;5.23;;
14554;SDS011;7364;50.870;4.722;2023-02-28T00:36:00;9.57;;;4.87;;
14554;SDS011;7364;50.870;4.722;2023-02-28T00:38:40;7.50;;;4.97;;
14554;SDS011;7364;50.870;4.722;2023-02-28T00:41:08;5.37;;;4.73;;
14554;SDS011;7364;50.870;4.722;2023-02-28T00:43:36;9.60;;;4.70;;
14554;SDS011;7364;50.870;4.722;2023-02-28T00:46:04;7.60;;;4.87;;
14554;SDS011;7364;50.870;4.722;2023-02-28T00:48:32;6.00;;;4.67;;
14554;SDS011;7364;50.870;4.722;2023-02-28T00:51:00;7.03;;;5.07;;
14554;SDS011;7364;50.870;4.722;2023-02-28T00:53:29;8.07;;;4.70;;
14554;SDS011;7364;50.870;4.722;2023-02-28T00:55:57;7.20;;;4.87;;
14554;SDS011;7364;50.870;4.722;2023-02-28T00:58:24;7.20;;;4.93;;
14554;SDS011;7364;50.870;4.722;2023-02-28T01:00:52;9.53;;;5.47;;
14554;SDS011;7364;50.870;4.722;2023-02-28T01:03:19;7.20;;;5.33;;
14554;SDS011;7364;50.870;4.722;2023-02-28T01:05:47;7.97;;;5.23;;
14554;SDS011;7364;50.870;4.722;2023-02-28T01:08:14;8.17;;;4.77;;
14554;SDS011;7364;50.870;4.722;2023-02-28T01:10:43;6.07;;;4.83;;
14554;SDS011;7364;50.870;4.722;2023-02-28T01:13:10;6.40;;;5.03;;
14554;SDS011;7364;50.870;4.722;2023-02-28T01:15:37;9.57;;;5.40;;
14554;SDS011;7364;50.870;4.722;2023-02-28T01:18:08;5.37;;;4.27;;
14554;SDS011;7364;50.870;4.722;2023-02-28T01:20:36;7.47;;;4.80;;
14554;SDS011;7364;50.870;4.722;2023-02-28T01:23:05;10.30;;;5.60;;
14554;SDS011;7364;50.870;4.722;2023-02-28T01:25:34;13.00;;;5.50;;
14554;SDS011;7364;50.870;4.722;2023-02-28T01:28:03;11.87;;;5.70;;
14554;SDS011;7364;50.870;4.722;2023-02-28T01:30:30;8.13;;;5.60;;
14554;SDS011;7364;50.870;4.722;2023-02-28T01:32:58;9.30;;;5.60;;
14554;SDS011;7364;50.870;4.722;2023-02-28T01:35:26;8.03;;;5.63;;
14554;SDS011;7364;50.870;4.722;2023-02-28T01:37:53;6.03;;;5.03;;
14554;SDS011;7364;50.870;4.722;2023-02-28T01:40:20;9.80;;;5.67;;
14554;SDS011;7364;50.870;4.722;2023-02-28T01:42:49;9.93;;;5.20;;
14554;SDS011;7364;50.870;4.722;2023-02-28T01:45:20;6.57;;;4.50;;
14554;SDS011;7364;50.870;4.722;2023-02-28T01:47:51;7.53;;;5.00;;
14554;SDS011;7364;50.870;4.722;2023-02-28T01:50:22;7.67;;;5.30;;
14554;SDS011;7364;50.870;4.722;2023-02-28T01:52:52;10.17;;;5.70;;
14554;SDS011;7364;50.870;4.722;2023-02-28T01:55:24;11.43;;;5.20;;
14554;SDS011;7364;50.870;4.722;2023-02-28T01:57:54;7.57;;;4.87;;
14554;SDS011;7364;50.870;4.722;2023-02-28T02:00:25;6.63;;;5.07;;
14554;SDS011;7364;50.870;4.722;2023-02-28T02:02:54;8.37;;;5.60;;
14554;SDS011;7364;50.870;4.722;2023-02-28T02:05:25;9.00;;;5.60;;
14554;SDS011;7364;50.870;4.722;2023-02-28T02:07:56;7.80;;;5.40;;
14554;SDS011;7364;50.870;4.722;2023-02-28T02:10:29;9.37;;;5.57;;
14554;SDS011;7364;50.870;4.722;2023-02-28T02:13:10;9.13;;;4.57;;
14554;SDS011;7364;50.870;4.722;2023-02-28T02:15:53;9.00;;;5.87;;
14554;SDS011;7364;50.870;4.722;2023-02-28T02:18:31;8.00;;;5.73;;
14554;SDS011;7364;50.870;4.722;2023-02-28T02:21:09;9.70;;;4.77;;
14554;SDS011;7364;50.870;4.722;2023-02-28T02:24:22;7.87;;;5.40;;
14554;SDS011;7364;50.870;4.722;2023-02-28T02:30:21;7.97;;;5.23;;
14554;SDS011;7364;50.870;4.722;2023-02-28T02:33:17;11.30;;;5.63;;
14554;SDS011;7364;50.870;4.722;2023-02-28T02:36:14;8.23;;;5.67;;
14554;SDS011;7364;50.870;4.722;2023-02-28T02:38:48;10.23;;;5.90;;
14554;SDS011;7364;50.870;4.722;2023-02-28T02:41:19;6.87;;;5.67;;
14554;SDS011;7364;50.870;4.722;2023-02-28T02:43:52;9.30;;;5.10;;
14554;SDS011;7364;50.870;4.722;2023-02-28T02:46:25;6.60;;;5.23;;
14554;SDS011;7364;50.870;4.722;2023-02-28T02:48:56;7.60;;;5.67;;
14554;SDS011;7364;50.870;4.722;2023-02-28T02:51:28;7.10;;;5.60;;
14554;SDS011;7364;50.870;4.722;2023-02-28T02:54:00;8.43;;;5.80;;
14554;SDS011;7364;50.870;4.722;2023-02-28T02:56:31;9.33;;;5.87;;
14554;SDS011;7364;50.870;4.722;2023-02-28T02:59:02;6.97;;;5.27;;
14554;SDS011;7364;50.870;4.722;2023-02-28T03:01:31;6.90;;;5.97;;
14554;SDS011;7364;50.870;4.722;2023-02-28T03:04:01;9.50;;;6.83;;
14554;SDS011;7364;50.870;4.722;2023-02-28T03:06:33;8.30;;;6.13;;
14554;SDS011;7364;50.870;4.722;2023-02-28T03:09:01;8.00;;;6.20;;
14554;SDS011;7364;50.870;4.722;2023-02-28T03:11:29;9.00;;;6.57;;
14554;SDS011;7364;50.870;4.722;2023-02-28T03:14:01;10.77;;;6.40;;
14554;SDS011;7364;50.870;4.722;2023-02-28T03:16:56;9.77;;;5.93;;
14554;SDS011;7364;50.870;4.722;2023-02-28T03:19:45;13.10;;;6.23;;
14554;SDS011;7364;50.870;4.722;2023-02-28T03:22:27;8.87;;;6.40;;
14554;SDS011;7364;50.870;4.722;2023-02-28T03:25:07;9.47;;;6.73;;
14554;SDS011;7364;50.870;4.722;2023-02-28T03:27:41;11.93;;;6.00;;
14554;SDS011;7364;50.870;4.722;2023-02-28T03:30:16;11.13;;;6.70;;
14554;SDS011;7364;50.870;4.722;2023-02-28T03:32:51;10.37;;;5.90;;
14554;SDS011;7364;50.870;4.722;2023-02-28T03:35:23;9.40;;;6.70;;
14554;SDS011;7364;50.870;4.722;2023-02-28T03:37:55;7.43;;;6.27;;
14554;SDS011;7364;50.870;4.722;2023-02-28T03:40:27;7.57;;;5.57;;
14554;SDS011;7364;50.870;4.722;2023-02-28T03:42:59;7.77;;;6.20;;
14554;SDS011;7364;50.870;4.722;2023-02-28T03:45:35;8.23;;;6.23;;
14554;SDS011;7364;50.870;4.722;2023-02-28T03:48:06;9.63;;;6.50;;
14554;SDS011;7364;50.870;4.722;2023-02-28T03:50:40;9.10;;;6.60;;
14554;SDS011;7364;50.870;4.722;2023-02-28T03:53:10;8.40;;;5.83;;
14554;SDS011;7364;50.870;4.722;2023-02-28T03:55:42;10.40;;;7.07;;
14554;SDS011;7364;50.870;4.722;2023-02-28T03:58:13;8.67;;;7.17;;
14554;SDS011;7364;50.870;4.722;2023-02-28T04:00:49;12.63;;;6.40;;
14554;SDS011;7364;50.870;4.722;2023-02-28T04:03:21;10.10;;;7.47;;
14554;SDS011;7364;50.870;4.722;2023-02-28T04:05:50;10.10;;;6.87;;
14554;SDS011;7364;50.870;4.722;2023-02-28T04:08:20;8.30;;;7.10;;
14554;SDS011;7364;50.870;4.722;2023-02-28T04:10:50;8.87;;;6.57;;
14554;SDS011;7364;50.870;4.722;2023-02-28T04:13:22;11.07;;;7.23;;
14554;SDS011;7364;50.870;4.722;2023-02-28T04:15:49;9.60;;;7.30;;
14554;SDS011;7364;50.870;4.722;2023-02-28T04:18:17;10.10;;;7.57;;
14554;SDS011;7364;50.870;4.722;2023-02-28T04:20:44;11.30;;;6.57;;
14554;SDS011;7364;50.870;4.722;2023-02-28T04:23:11;9.07;;;6.80;;
14554;SDS011;7364;50.870;4.722;2023-02-28T04:25:40;8.40;;;7.50;;
14554;SDS011;7364;50.870;4.722;2023-02-28T04:28:07;9.63;;;7.00;;
14554;SDS011;7364;50.870;4.722;2023-02-28T04:30:35;11.50;;;7.60;;
14554;SDS011;7364;50.870;4.722;2023-02-28T04:33:04;13.23;;;8.47;;
14554;SDS011;7364;50.870;4.722;2023-02-28T04:35:31;14.70;;;8.00;;
14554;SDS011;7364;50.870;4.722;2023-02-28T04:37:59;10.30;;;7.87;;
14554;SDS011;7364;50.870;4.722;2023-02-28T04:40:26;12.53;;;8.43;;
14554;SDS011;7364;50.870;4.722;2023-02-28T04:42:57;12.30;;;7.80;;
14554;SDS011;7364;50.870;4.722;2023-02-28T04:45:25;11.13;;;8.20;;
14554;SDS011;7364;50.870;4.722;2023-02-28T04:47:55;11.03;;;7.63;;
14554;SDS011;7364;50.870;4.722;2023-02-28T04:50:22;9.20;;;7.17;;
14554;SDS011;7364;50.870;4.722;2023-02-28T04:52:50;12.97;;;8.33;;
14554;SDS011;7364;50.870;4.722;2023-02-28T04:55:17;16.20;;;8.20;;
14554;SDS011;7364;50.870;4.722;2023-02-28T04:57:44;11.90;;;8.20;;
14554;SDS011;7364;50.870;4.722;2023-02-28T05:00:14;14.07;;;8.83;;
14554;SDS011;7364;50.870;4.722;2023-02-28T05:02:41;9.67;;;7.40;;
14554;SDS011;7364;50.870;4.722;2023-02-28T05:05:09;11.00;;;7.67;;
14554;SDS011;7364;50.870;4.722;2023-02-28T05:07:42;16.40;;;8.80;;
14554;SDS011;7364;50.870;4.722;2023-02-28T05:10:10;12.90;;;8.07;;
14554;SDS011;7364;50.870;4.722;2023-02-28T05:12:38;15.17;;;7.60;;
14554;SDS011;7364;50.870;4.722;2023-02-28T05:15:05;9.90;;;8.07;;
14554;SDS011;7364;50.870;4.722;2023-02-28T05:17:36;15.07;;;9.13;;
14554;SDS011;7364;50.870;4.722;2023-02-28T05:20:04;10.33;;;7.80;;
14554;SDS011;7364;50.870;4.722;2023-02-28T05:22:32;12.43;;;8.13;;
14554;SDS011;7364;50.870;4.722;2023-02-28T05:24:59;9.90;;;8.17;;
14554;SDS011;7364;50.870;4.722;2023-02-28T05:27:27;11.80;;;8.37;;
14554;SDS011;7364;50.870;4.722;2023-02-28T05:29:54;12.60;;;8.23;;
14554;SDS011;7364;50.870;4.722;2023-02-28T05:32:21;17.67;;;8.90;;
14554;SDS011;7364;50.870;4.722;2023-02-28T05:34:50;11.07;;;7.93;;
14554;SDS011;7364;50.870;4.722;2023-02-28T05:37:17;12.37;;;8.80;;
14554;SDS011;7364;50.870;4.722;2023-02-28T05:39:44;11.13;;;7.97;;
14554;SDS011;7364;50.870;4.722;2023-02-28T05:42:12;11.77;;;8.30;;
14554;SDS011;7364;50.870;4.722;2023-02-28T05:44:39;11.50;;;8.90;;
14554;SDS011;7364;50.870;4.722;2023-02-28T05:47:07;14.73;;;8.10;;
14554;SDS011;7364;50.870;4.722;2023-02-28T05:49:34;9.67;;;7.87;;
14554;SDS011;7364;50.870;4.722;2023-02-28T05:52:03;12.20;;;8.93;;
14554;SDS011;7364;50.870;4.722;2023-02-28T05:54:30;14.80;;;8.87;;
14554;SDS011;7364;50.870;4.722;2023-02-28T05:56:58;12.60;;;8.87;;
14554;SDS011;7364;50.870;4.722;2023-02-28T05:59:25;15.90;;;9.37;;
14554;SDS011;7364;50.870;4.722;2023-02-28T06:01:52;13.93;;;9.00;;
14554;SDS011;7364;50.870;4.722;2023-02-28T06:04:20;13.63;;;8.90;;
14554;SDS011;7364;50.870;4.722;2023-02-28T06:06:48;14.53;;;9.40;;
14554;SDS011;7364;50.870;4.722;2023-02-28T06:09:18;11.40;;;9.53;;
14554;SDS011;7364;50.870;4.722;2023-02-28T06:11:45;12.33;;;9.00;;
14554;SDS011;7364;50.870;4.722;2023-02-28T06:14:14;12.73;;;10.53;;
14554;SDS011;7364;50.870;4.722;2023-02-28T06:16:42;16.73;;;10.10;;
14554;SDS011;7364;50.870;4.722;2023-02-28T06:19:10;10.70;;;9.60;;
14554;SDS011;7364;50.870;4.722;2023-02-28T06:21:38;15.57;;;9.60;;
14554;SDS011;7364;50.870;4.722;2023-02-28T06:24:05;11.17;;;9.67;;
14554;SDS011;7364;50.870;4.722;2023-02-28T06:26:35;12.00;;;9.53;;
14554;SDS011;7364;50.870;4.722;2023-02-28T06:29:02;10.87;;;9.33;;
14554;SDS011;7364;50.870;4.722;2023-02-28T06:31:30;14.27;;;12.77;;
14554;SDS011;7364;50.870;4.722;2023-02-28T06:33:57;12.00;;;9.87;;
14554;SDS011;7364;50.870;4.722;2023-02-28T06:36:24;15.17;;;9.83;;
14554;SDS011;7364;50.870;4.722;2023-02-28T06:38:52;10.67;;;9.57;;
14554;SDS011;7364;50.870;4.722;2023-02-28T06:41:21;15.37;;;10.00;;
14554;SDS011;7364;50.870;4.722;2023-02-28T06:43:50;13.63;;;8.87;;
14554;SDS011;7364;50.870;4.722;2023-02-28T06:46:18;12.67;;;10.00;;
14554;SDS011;7364;50.870;4.722;2023-02-28T06:48:46;13.23;;;9.50;;
14554;SDS011;7364;50.870;4.722;2023-02-28T06:51:14;15.10;;;8.97;;
14554;SDS011;7364;50.870;4.722;2023-02-28T06:53:43;11.40;;;10.13;;
14554;SDS011;7364;50.870;4.722;2023-02-28T06:56:11;13.40;;;9.97;;
14554;SDS011;7364;50.870;4.722;2023-02-28T06:58:40;14.67;;;10.63;;
14554;SDS011;7364;50.870;4.722;2023-02-28T07:01:10;13.07;;;9.50;;
14554;SDS011;7364;50.870;4.722;2023-02-28T07:03:37;12.43;;;10.23;;
14554;SDS011;7364;50.870;4.722;2023-02-28T07:06:05;14.53;;;9.50;;
14554;SDS011;7364;50.870;4.722;2023-02-28T07:08:32;15.37;;;10.70;;
14554;SDS011;7364;50.870;4.722;2023-02-28T07:11:01;18.20;;;8.43;;
14554;SDS011;7364;50.870;4.722;2023-02-28T07:13:29;15.20;;;9.60;;
14554;SDS011;7364;50.870;4.722;2023-02-28T07:15:58;11.17;;;8.87;;
14554;SDS011;7364;50.870;4.722;2023-02-28T07:18:28;10.40;;;9.17;;
14554;SDS011;7364;50.870;4.722;2023-02-28T07:20:55;14.33;;;9.83;;
14554;SDS011;7364;50.870;4.722;2023-02-28T07:23:23;11.60;;;9.40;;
14554;SDS011;7364;50.870;4.722;2023-02-28T07:25:50;10.63;;;8.57;;
14554;SDS011;7364;50.870;4.722;2023-02-28T07:28:18;12.53;;;9.53;;
14554;SDS011;7364;50.870;4.722;2023-02-28T07:30:45;14.17;;;9.47;;
14554;SDS011;7364;50.870;4.722;2023-02-28T07:33:13;14.90;;;9.27;;
14554;SDS011;7364;50.870;4.722;2023-02-28T07:35:42;12.90;;;9.30;;
14554;SDS011;7364;50.870;4.722;2023-02-28T07:38:10;14.00;;;8.73;;
14554;SDS011;7364;50.870;4.722;2023-02-28T07:40:39;11.50;;;9.17;;
14554;SDS011;7364;50.870;4.722;2023-02-28T07:43:06;13.50;;;8.57;;
14554;SDS011;7364;50.870;4.722;2023-02-28T07:45:34;15.50;;;9.43;;
14554;SDS011;7364;50.870;4.722;2023-02-28T07:48:01;9.83;;;7.77;;
14554;SDS011;7364;50.870;4.722;2023-02-28T07:50:29;13.13;;;8.20;;
14554;SDS011;7364;50.870;4.722;2023-02-28T07:52:58;8.43;;;7.60;;
14554;SDS011;7364;50.870;4.722;2023-02-28T07:55:26;10.77;;;8.77;;
14554;SDS011;7364;50.870;4.722;2023-02-28T07:57:53;12.33;;;7.80;;
14554;SDS011;7364;50.870;4.722;2023-02-28T08:00:21;11.20;;;7.90;;
14554;SDS011;7364;50.870;4.722;2023-02-28T08:02:49;14.33;;;7.50;;
14554;SDS011;7364;50.870;4.722;2023-02-28T08:05:17;12.77;;;7.67;;
14554;SDS011;7364;50.870;4.722;2023-02-28T08:07:44;9.57;;;7.67;;
14554;SDS011;7364;50.870;4.722;2023-02-28T08:10:14;10.90;;;8.07;;
14554;SDS011;7364;50.870;4.722;2023-02-28T08:12:42;11.23;;;8.10;;
14554;SDS011;7364;50.870;4.722;2023-02-28T08:15:10;9.77;;;7.33;;
14554;SDS011;7364;50.870;4.722;2023-02-28T08:17:38;11.70;;;7.43;;
14554;SDS011;7364;50.870;4.722;2023-02-28T08:20:05;15.77;;;7.43;;
14554;SDS011;7364;50.870;4.722;2023-02-28T08:22:35;9.57;;;6.47;;
14554;SDS011;7364;50.870;4.722;2023-02-28T08:25:03;9.60;;;5.93;;
14554;SDS011;7364;50.870;4.722;2023-02-28T08:27:33;9.87;;;6.33;;
14554;SDS011;7364;50.870;4.722;2023-02-28T08:30:01;9.60;;;6.23;;
14554;SDS011;7364;50.870;4.722;2023-02-28T08:32:29;10.90;;;6.60;;
14554;SDS011;7364;50.870;4.722;2023-02-28T08:34:56;14.30;;;6.20;;
14554;SDS011;7364;50.870;4.722;2023-02-28T08:37:24;8.93;;;6.33;;
14554;SDS011;7364;50.870;4.722;2023-02-28T08:39:51;9.47;;;5.90;;
14554;SDS011;7364;50.870;4.722;2023-02-28T08:42:19;8.60;;;5.73;;
14554;SDS011;7364;50.870;4.722;2023-02-28T08:44:49;7.77;;;5.57;;
14554;SDS011;7364;50.870;4.722;2023-02-28T08:47:17;7.33;;;5.23;;
14554;SDS011;7364;50.870;4.722;2023-02-28T08:49:44;7.10;;;5.03;;
14554;SDS011;7364;50.870;4.722;2023-02-28T08:52:12;9.77;;;4.93;;
14554;SDS011;7364;50.870;4.722;2023-02-28T08:54:39;8.40;;;5.03;;
14554;SDS011;7364;50.870;4.722;2023-02-28T08:57:07;7.73;;;5.50;;
14554;SDS011;7364;50.870;4.722;2023-02-28T08:59:35;7.03;;;5.20;;
14554;SDS011;7364;50.870;4.722;2023-02-28T09:02:03;7.60;;;5.03;;
14554;SDS011;7364;50.870;4.722;2023-02-28T09:04:31;5.87;;;4.20;;
14554;SDS011;7364;50.870;4.722;2023-02-28T09:06:59;5.97;;;4.20;;
14554;SDS011;7364;50.870;4.722;2023-02-28T09:09:27;8.03;;;4.90;;
14554;SDS011;7364;50.870;4.722;2023-02-28T09:11:55;8.10;;;4.40;;
14554;SDS011;7364;50.870;4.722;2023-02-28T09:14:22;6.43;;;4.43;;
14554;SDS011;7364;50.870;4.722;2023-02-28T09:16:49;6.03;;;4.63;;
14554;SDS011;7364;50.870;4.722;2023-02-28T09:19:18;7.50;;;4.97;;
14554;SDS011;7364;50.870;4.722;2023-02-28T09:21:45;4.70;;;3.83;;
14554;SDS011;7364;50.870;4.722;2023-02-28T09:24:13;11.83;;;4.87;;
14554;SDS011;7364;50.870;4.722;2023-02-28T09:26:40;6.20;;;4.47;;
14554;SDS011;7364;50.870;4.722;2023-02-28T09:29:08;8.57;;;3.63;;
14554;SDS011;7364;50.870;4.722;2023-02-28T09:31:36;4.67;;;3.40;;
14554;SDS011;7364;50.870;4.722;2023-02-28T09:34:03;5.37;;;3.40;;
14554;SDS011;7364;50.870;4.722;2023-02-28T09:36:33;4.80;;;3.37;;
14554;SDS011;7364;50.870;4.722;2023-02-28T09:39:00;4.10;;;3.27;;
14554;SDS011;7364;50.870;4.722;2023-02-28T09:41:28;7.27;;;3.77;;
14554;SDS011;7364;50.870;4.722;2023-02-28T09:44:05;6.03;;;3.17;;
14554;SDS011;7364;50.870;4.722;2023-02-28T09:46:40;5.00;;;3.23;;
14554;SDS011;7364;50.870;4.722;2023-02-28T09:49:11;6.37;;;2.83;;
14554;SDS011;7364;50.870;4.722;2023-02-28T09:51:45;5.93;;;3.17;;
14554;SDS011;7364;50.870;4.722;2023-02-28T09:54:20;7.33;;;3.77;;
14554;SDS011;7364;50.870;4.722;2023-02-28T09:56:51;5.03;;;2.83;;
14554;SDS011;7364;50.870;4.722;2023-02-28T09:59:31;4.93;;;2.90;;
14554;SDS011;7364;50.870;4.722;2023-02-28T10:02:11;3.93;;;3.10;;
14554;SDS011;7364;50.870;4.722;2023-02-28T10:04:47;3.60;;;2.73;;
14554;SDS011;7364;50.870;4.722;2023-02-28T10:07:24;4.40;;;3.10;;
14554;SDS011;7364;50.870;4.722;2023-02-28T10:10:05;5.17;;;2.80;;
14554;SDS011;7364;50.870;4.722;2023-02-28T10:12:42;4.03;;;2.70;;
14554;SDS011;7364;50.870;4.722;2023-02-28T10:15:13;3.40;;;2.10;;
14554;SDS011;7364;50.870;4.722;2023-02-28T10:17:42;3.77;;;2.20;;
14554;SDS011;7364;50.870;4.722;2023-02-28T10:20:14;2.77;;;2.20;;
14554;SDS011;7364;50.870;4.722;2023-02-28T10:22:51;3.57;;;2.43;;
14554;SDS011;7364;50.870;4.722;2023-02-28T10:25:24;4.87;;;2.83;;
14554;SDS011;7364;50.870;4.722;2023-02-28T10:27:54;3.53;;;2.50;;
14554;SDS011;7364;50.870;4.722;2023-02-28T10:30:27;4.00;;;2.33;;
14554;SDS011;7364;50.870;4.722;2023-02-28T10:32:55;3.77;;;2.40;;
14554;SDS011;7364;50.870;4.722;2023-02-28T10:35:26;6.93;;;2.73;;
14554;SDS011;7364;50.870;4.722;2023-02-28T10:37:56;3.43;;;2.50;;
14554;SDS011;7364;50.870;4.722;2023-02-28T10:40:28;4.27;;;2.03;;
14554;SDS011;7364;50.870;4.722;2023-02-28T10:42:59;4.93;;;2.00;;
14554;SDS011;7364;50.870;4.722;2023-02-28T10:45:28;5.87;;;2.27;;
14554;SDS011;7364;50.870;4.722;2023-02-28T10:47:58;3.43;;;2.07;;
14554;SDS011;7364;50.870;4.722;2023-02-28T10:50:33;3.87;;;2.03;;
14554;SDS011;7364;50.870;4.722;2023-02-28T10:53:13;4.30;;;2.40;;
14554;SDS011;7364;50.870;4.722;2023-02-28T10:55:56;3.60;;;2.70;;
14554;SDS011;7364;50.870;4.722;2023-02-28T10:58:25;4.07;;;2.13;;
14554;SDS011;7364;50.870;4.722;2023-02-28T11:00:54;3.90;;;2.60;;
14554;SDS011;7364;50.870;4.722;2023-02-28T11:03:23;3.97;;;2.13;;
14554;SDS011;7364;50.870;4.722;2023-02-28T11:05:56;4.03;;;2.57;;
14554;SDS011;7364;50.870;4.722;2023-02-28T11:08:25;4.93;;;2.30;;
14554;SDS011;7364;50.870;4.722;2023-02-28T11:10:54;3.17;;;2.17;;
14554;SDS011;7364;50.870;4.722;2023-02-28T11:13:26;3.87;;;2.77;;
14554;SDS011;7364;50.870;4.722;2023-02-28T11:16:02;3.47;;;2.07;;
14554;SDS011;7364;50.870;4.722;2023-02-28T11:18:34;3.20;;;1.90;;
14554;SDS011;7364;50.870;4.722;2023-02-28T11:21:07;4.73;;;2.30;;
14554;SDS011;7364;50.870;4.722;2023-02-28T11:23:43;7.10;;;2.10;;
14554;SDS011;7364;50.870;4.722;2023-02-28T11:26:11;4.53;;;2.47;;
14554;SDS011;7364;50.870;4.722;2023-02-28T11:28:40;3.57;;;2.37;;
14554;SDS011;7364;50.870;4.722;2023-02-28T11:31:17;3.10;;;2.20;;
14554;SDS011;7364;50.870;4.722;2023-02-28T11:33:48;4.47;;;2.40;;
14554;SDS011;7364;50.870;4.722;2023-02-28T11:36:18;3.80;;;2.30;;
14554;SDS011;7364;50.870;4.722;2023-02-28T11:38:51;3.03;;;1.87;;
14554;SDS011;7364;50.870;4.722;2023-02-28T11:41:30;3.87;;;2.03;;
14554;SDS011;7364;50.870;4.722;2023-02-28T11:44:13;2.30;;;1.57;;
14554;SDS011;7364;50.870;4.722;2023-02-28T11:46:50;3.13;;;2.03;;
14554;SDS011;7364;50.870;4.722;2023-02-28T11:49:30;3.63;;;2.47;;
14554;SDS011;7364;50.870;4.722;2023-02-28T11:52:05;2.83;;;2.13;;
14554;SDS011;7364;50.870;4.722;2023-02-28T11:54:55;2.93;;;2.40;;
14554;SDS011;7364;50.870;4.722;2023-02-28T11:57:35;2.80;;;2.00;;
14554;SDS011;7364;50.870;4.722;2023-02-28T12:00:13;3.50;;;2.10;;
14554;SDS011;7364;50.870;4.722;2023-02-28T12:03:01;8.13;;;2.30;;
14554;SDS011;7364;50.870;4.722;2023-02-28T12:05:39;3.60;;;2.50;;
14554;SDS011;7364;50.870;4.722;2023-02-28T12:08:18;4.90;;;2.43;;
14554;SDS011;7364;50.870;4.722;2023-02-28T12:11:03;3.87;;;2.23;;
14554;SDS011;7364;50.870;4.722;2023-02-28T12:13:42;3.83;;;2.60;;
14554;SDS011;7364;50.870;4.722;2023-02-28T12:16:29;2.83;;;2.00;;
14554;SDS011;7364;50.870;4.722;2023-02-28T12:19:10;4.33;;;2.43;;
14554;SDS011;7364;50.870;4.722;2023-02-28T12:21:59;3.00;;;2.23;;
14554;SDS011;7364;50.870;4.722;2023-02-28T12:28:10;3.50;;;2.07;;
14554;SDS011;7364;50.870;4.722;2023-02-28T12:30:41;2.40;;;2.20;;
14554;SDS011;7364;50.870;4.722;2023-02-28T12:33:16;2.77;;;2.10;;
14554;SDS011;7364;50.870;4.722;2023-02-28T12:35:48;2.67;;;2.00;;
14554;SDS011;7364;50.870;4.722;2023-02-28T12:38:21;4.00;;;2.73;;
14554;SDS011;7364;50.870;4.722;2023-02-28T12:40:52;4.73;;;3.07;;
14554;SDS011;7364;50.870;4.722;2023-02-28T12:43:25;5.30;;;3.90;;
14554;SDS011;7364;50.870;4.722;2023-02-28T12:46:00;4.93;;;2.70;;
14554;SDS011;7364;50.870;4.722;2023-02-28T12:48:36;4.90;;;3.20;;
14554;SDS011;7364;50.870;4.722;2023-02-28T12:51:07;3.23;;;2.70;;
14554;SDS011;7364;50.870;4.722;2023-02-28T12:53:41;3.00;;;2.23;;
14554;SDS011;7364;50.870;4.722;2023-02-28T12:56:22;5.23;;;2.47;;
14554;SDS011;7364;50.870;4.722;2023-02-28T12:59:02;3.20;;;2.47;;
14554;SDS011;7364;50.870;4.722;2023-02-28T13:01:41;7.23;;;2.50;;
14554;SDS011;7364;50.870;4.722;2023-02-28T13:07:19;3.07;;;2.23;;
14554;SDS011;7364;50.870;4.722;2023-02-28T13:10:19;3.87;;;2.70;;
14554;SDS011;7364;50.870;4.722;2023-02-28T13:12:48;4.70;;;2.40;;
14554;SDS011;7364;50.870;4.722;2023-02-28T13:15:19;3.10;;;2.10;;
14554;SDS011;7364;50.870;4.722;2023-02-28T13:17:50;2.97;;;2.37;;
14554;SDS011;7364;50.870;4.722;2023-02-28T13:20:20;5.00;;;2.57;;
14554;SDS011;7364;50.870;4.722;2023-02-28T13:22:53;2.60;;;2.00;;
14554;SDS011;7364;50.870;4.722;2023-02-28T13:34:46;5.07;;;2.77;;
14554;SDS011;7364;50.870;4.722;2023-02-28T13:37:41;3.90;;;2.30;;
14554;SDS011;7364;50.870;4.722;2023-02-28T13:40:26;2.73;;;2.33;;
14554;SDS011;7364;50.870;4.722;2023-02-28T13:42:56;5.53;;;2.57;;
14554;SDS011;7364;50.870;4.722;2023-02-28T13:45:26;5.03;;;2.77;;
14554;SDS011;7364;50.870;4.722;2023-02-28T13:47:56;4.63;;;2.70;;
14554;SDS011;7364;50.870;4.722;2023-02-28T13:50:29;6.33;;;2.00;;
14554;SDS011;7364;50.870;4.722;2023-02-28T13:53:08;3.73;;;2.63;;
14554;SDS011;7364;50.870;4.722;2023-02-28T13:55:57;4.63;;;2.37;;
14554;SDS011;7364;50.870;4.722;2023-02-28T13:58:37;4.47;;;2.50;;
14554;SDS011;7364;50.870;4.722;2023-02-28T14:01:20;3.90;;;2.77;;
14554;SDS011;7364;50.870;4.722;2023-02-28T14:07:16;6.10;;;2.53;;
14554;SDS011;7364;50.870;4.722;2023-02-28T14:09:49;4.20;;;2.60;;
14554;SDS011;7364;50.870;4.722;2023-02-28T14:15:28;4.03;;;3.00;;
14554;SDS011;7364;50.870;4.722;2023-02-28T14:18:26;4.10;;;3.27;;
14554;SDS011;7364;50.870;4.722;2023-02-28T14:21:09;4.03;;;2.80;;
14554;SDS011;7364;50.870;4.722;2023-02-28T14:24:00;11.10;;;3.00;;
14554;SDS011;7364;50.870;4.722;2023-02-28T14:26:49;6.33;;;2.70;;
14554;SDS011;7364;50.870;4.722;2023-02-28T14:32:33;6.83;;;3.33;;
14554;SDS011;7364;50.870;4.722;2023-02-28T14:35:13;3.80;;;2.37;;
14554;SDS011;7364;50.870;4.722;2023-02-28T14:37:49;5.27;;;2.60;;
14554;SDS011;7364;50.870;4.722;2023-02-28T14:40:19;4.60;;;3.10;;
14554;SDS011;7364;50.870;4.722;2023-02-28T14:42:55;3.87;;;2.90;;
14554;SDS011;7364;50.870;4.722;2023-02-28T14:45:23;5.03;;;3.20;;
14554;SDS011;7364;50.870;4.722;2023-02-28T14:47:51;4.93;;;2.87;;
14554;SDS011;7364;50.870;4.722;2023-02-28T14:50:20;4.10;;;2.93;;
14554;SDS011;7364;50.870;4.722;2023-02-28T14:52:50;4.33;;;2.50;;
14554;SDS011;7364;50.870;4.722;2023-02-28T14:55:25;5.70;;;3.07;;
14554;SDS011;7364;50.870;4.722;2023-02-28T14:57:56;4.27;;;2.63;;
14554;SDS011;7364;50.870;4.722;2023-02-28T15:00:25;3.50;;;2.80;;
14554;SDS011;7364;50.870;4.722;2023-02-28T15:02:55;3.60;;;2.63;;
14554;SDS011;7364;50.870;4.722;2023-02-28T15:05:26;5.17;;;3.13;;
14554;SDS011;7364;50.870;4.722;2023-02-28T15:08:01;7.20;;;2.60;;
14554;SDS011;7364;50.870;4.722;2023-02-28T15:10:33;5.43;;;2.53;;
14554;SDS011;7364;50.870;4.722;2023-02-28T15:13:01;4.00;;;2.80;;
14554;SDS011;7364;50.870;4.722;2023-02-28T15:15:38;3.50;;;2.70;;
14554;SDS011;7364;50.870;4.722;2023-02-28T15:18:11;3.90;;;3.00;;
14554;SDS011;7364;50.870;4.722;2023-02-28T15:20:48;5.57;;;3.07;;
14554;SDS011;7364;50.870;4.722;2023-02-28T15:23:17;3.67;;;2.63;;
14554;SDS011;7364;50.870;4.722;2023-02-28T15:25:49;5.07;;;3.07;;
14554;SDS011;7364;50.870;4.722;2023-02-28T15:28:19;3.37;;;2.53;;
14554;SDS011;7364;50.870;4.722;2023-02-28T15:30:53;6.10;;;2.90;;
14554;SDS011;7364;50.870;4.722;2023-02-28T15:33:23;4.13;;;3.60;;
14554;SDS011;7364;50.870;4.722;2023-02-28T15:36:03;4.70;;;3.53;;
14554;SDS011;7364;50.870;4.722;2023-02-28T15:38:39;3.63;;;2.47;;
14554;SDS011;7364;50.870;4.722;2023-02-28T15:41:21;3.67;;;2.53;;
14554;SDS011;7364;50.870;4.722;2023-02-28T15:46:45;4.00;;;2.90;;
14554;SDS011;7364;50.870;4.722;2023-02-28T15:49:23;3.60;;;2.63;;
14554;SDS011;7364;50.870;4.722;2023-02-28T15:51:53;4.70;;;2.67;;
14554;SDS011;7364;50.870;4.722;2023-02-28T15:54:28;4.47;;;2.97;;
14554;SDS011;7364;50.870;4.722;2023-02-28T15:57:02;4.87;;;3.10;;